sensor_id;sensor_type;location;lat;lon;timestamp;P1;durP1;ratioP1;P2;durP2;ratioP2
67640;SDS011;54434;50.096;20.082;2023-10-31T00:01:03;51.40;;;27.20;;
67640;SDS011;54434;50.096;20.082;2023-10-31T00:03:40;9.70;;;5.60;;
67640;SDS011;54434;50.096;20.082;2023-10-31T00:06:18;9.70;;;4.20;;
67640;SDS011;54434;50.096;20.082;2023-10-31T00:08:55;7.70;;;4.10;;
67640;SDS011;54434;50.096;20.082;2023-10-31T00:11:31;8.50;;;4.50;;
67640;SDS011;54434;50.096;20.082;2023-10-31T00:14:08;9.00;;;4.40;;
67640;SDS011;54434;50.096;20.082;2023-10-31T00:17:03;7.40;;;4.30;;
67640;SDS011;54434;50.096;20.082;2023-10-31T00:19:40;9.10;;;4.30;;
67640;SDS011;54434;50.096;20.082;2023-10-31T00:22:18;10.50;;;4.40;;
67640;SDS011;54434;50.096;20.082;2023-10-31T00:24:54;10.50;;;4.00;;
67640;SDS011;54434;50.096;20.082;2023-10-31T00:27:30;6.90;;;4.00;;
67640;SDS011;54434;50.096;20.082;2023-10-31T00:30:09;8.30;;;4.00;;
67640;SDS011;54434;50.096;20.082;2023-10-31T00:32:46;10.60;;;4.40;;
67640;SDS011;54434;50.096;20.082;2023-10-31T00:35:23;7.00;;;4.00;;
67640;SDS011;54434;50.096;20.082;2023-10-31T00:37:59;8.80;;;4.10;;
67640;SDS011;54434;50.096;20.082;2023-10-31T00:40:37;10.10;;;4.30;;
67640;SDS011;54434;50.096;20.082;2023-10-31T00:43:14;8.40;;;4.00;;
67640;SDS011;54434;50.096;20.082;2023-10-31T00:45:50;8.30;;;4.10;;
67640;SDS011;54434;50.096;20.082;2023-10-31T00:48:27;9.00;;;4.10;;
67640;SDS011;54434;50.096;20.082;2023-10-31T00:51:06;9.00;;;4.10;;
67640;SDS011;54434;50.096;20.082;2023-10-31T00:53:42;8.40;;;3.80;;
67640;SDS011;54434;50.096;20.082;2023-10-31T00:56:19;9.60;;;4.20;;
67640;SDS011;54434;50.096;20.082;2023-10-31T00:58:57;9.20;;;3.90;;
67640;SDS011;54434;50.096;20.082;2023-10-31T01:01:34;9.60;;;3.90;;
67640;SDS011;54434;50.096;20.082;2023-10-31T01:04:10;10.30;;;4.10;;
67640;SDS011;54434;50.096;20.082;2023-10-31T01:06:47;9.80;;;3.80;;
67640;SDS011;54434;50.096;20.082;2023-10-31T01:09:24;10.80;;;4.50;;
67640;SDS011;54434;50.096;20.082;2023-10-31T01:12:00;7.70;;;3.90;;
67640;SDS011;54434;50.096;20.082;2023-10-31T01:14:37;7.40;;;3.90;;
67640;SDS011;54434;50.096;20.082;2023-10-31T01:17:14;10.80;;;4.10;;
67640;SDS011;54434;50.096;20.082;2023-10-31T01:19:50;10.50;;;3.90;;
67640;SDS011;54434;50.096;20.082;2023-10-31T01:22:27;9.00;;;3.90;;
67640;SDS011;54434;50.096;20.082;2023-10-31T01:25:04;10.40;;;4.10;;
67640;SDS011;54434;50.096;20.082;2023-10-31T01:27:41;13.90;;;4.20;;
67640;SDS011;54434;50.096;20.082;2023-10-31T01:30:18;9.10;;;3.80;;
67640;SDS011;54434;50.096;20.082;2023-10-31T01:32:55;8.80;;;3.80;;
67640;SDS011;54434;50.096;20.082;2023-10-31T01:35:31;12.30;;;3.70;;
67640;SDS011;54434;50.096;20.082;2023-10-31T01:38:08;9.90;;;3.60;;
67640;SDS011;54434;50.096;20.082;2023-10-31T01:40:44;10.30;;;4.00;;
67640;SDS011;54434;50.096;20.082;2023-10-31T01:43:36;6.60;;;3.70;;
67640;SDS011;54434;50.096;20.082;2023-10-31T01:46:15;7.00;;;3.60;;
67640;SDS011;54434;50.096;20.082;2023-10-31T01:48:51;8.00;;;3.70;;
67640;SDS011;54434;50.096;20.082;2023-10-31T01:51:29;9.30;;;3.80;;
67640;SDS011;54434;50.096;20.082;2023-10-31T01:54:07;8.90;;;4.10;;
67640;SDS011;54434;50.096;20.082;2023-10-31T01:56:45;9.50;;;3.70;;
67640;SDS011;54434;50.096;20.082;2023-10-31T01:59:24;7.40;;;3.50;;
67640;SDS011;54434;50.096;20.082;2023-10-31T02:02:02;7.70;;;3.40;;
67640;SDS011;54434;50.096;20.082;2023-10-31T02:04:40;8.90;;;3.50;;
67640;SDS011;54434;50.096;20.082;2023-10-31T02:07:17;6.60;;;3.00;;
67640;SDS011;54434;50.096;20.082;2023-10-31T02:09:53;6.30;;;3.10;;
67640;SDS011;54434;50.096;20.082;2023-10-31T02:12:37;9.10;;;3.20;;
67640;SDS011;54434;50.096;20.082;2023-10-31T02:15:16;6.00;;;3.30;;
67640;SDS011;54434;50.096;20.082;2023-10-31T02:17:56;6.50;;;3.30;;
67640;SDS011;54434;50.096;20.082;2023-10-31T02:20:32;5.60;;;2.80;;
67640;SDS011;54434;50.096;20.082;2023-10-31T02:23:10;5.20;;;2.90;;
67640;SDS011;54434;50.096;20.082;2023-10-31T02:25:46;8.30;;;3.30;;
67640;SDS011;54434;50.096;20.082;2023-10-31T02:28:23;8.50;;;3.30;;
67640;SDS011;54434;50.096;20.082;2023-10-31T02:31:01;10.20;;;3.00;;
67640;SDS011;54434;50.096;20.082;2023-10-31T02:33:40;6.90;;;3.30;;
67640;SDS011;54434;50.096;20.082;2023-10-31T02:36:16;7.20;;;3.30;;
67640;SDS011;54434;50.096;20.082;2023-10-31T02:38:53;7.50;;;3.00;;
67640;SDS011;54434;50.096;20.082;2023-10-31T02:41:30;5.10;;;2.90;;
67640;SDS011;54434;50.096;20.082;2023-10-31T02:44:07;8.30;;;3.00;;
67640;SDS011;54434;50.096;20.082;2023-10-31T02:46:44;6.70;;;3.00;;
67640;SDS011;54434;50.096;20.082;2023-10-31T02:49:20;7.50;;;2.80;;
67640;SDS011;54434;50.096;20.082;2023-10-31T02:51:57;6.50;;;3.00;;
67640;SDS011;54434;50.096;20.082;2023-10-31T02:54:33;6.40;;;3.00;;
67640;SDS011;54434;50.096;20.082;2023-10-31T02:57:10;6.70;;;3.10;;
67640;SDS011;54434;50.096;20.082;2023-10-31T02:59:47;6.20;;;3.00;;
67640;SDS011;54434;50.096;20.082;2023-10-31T03:02:23;10.20;;;3.00;;
67640;SDS011;54434;50.096;20.082;2023-10-31T03:05:00;6.00;;;2.90;;
67640;SDS011;54434;50.096;20.082;2023-10-31T03:07:37;7.80;;;3.30;;
67640;SDS011;54434;50.096;20.082;2023-10-31T03:10:14;4.80;;;2.60;;
67640;SDS011;54434;50.096;20.082;2023-10-31T03:12:51;6.60;;;2.60;;
67640;SDS011;54434;50.096;20.082;2023-10-31T03:15:27;10.40;;;3.00;;
67640;SDS011;54434;50.096;20.082;2023-10-31T03:18:04;6.70;;;2.70;;
67640;SDS011;54434;50.096;20.082;2023-10-31T03:20:43;8.50;;;3.10;;
67640;SDS011;54434;50.096;20.082;2023-10-31T03:23:21;5.50;;;2.80;;
67640;SDS011;54434;50.096;20.082;2023-10-31T03:25:57;7.30;;;2.70;;
67640;SDS011;54434;50.096;20.082;2023-10-31T03:28:34;8.00;;;2.80;;
67640;SDS011;54434;50.096;20.082;2023-10-31T03:31:11;9.00;;;2.70;;
67640;SDS011;54434;50.096;20.082;2023-10-31T03:33:47;6.80;;;2.90;;
67640;SDS011;54434;50.096;20.082;2023-10-31T03:36:25;6.60;;;3.00;;
67640;SDS011;54434;50.096;20.082;2023-10-31T03:39:01;5.20;;;2.80;;
67640;SDS011;54434;50.096;20.082;2023-10-31T03:41:37;5.50;;;2.90;;
67640;SDS011;54434;50.096;20.082;2023-10-31T03:44:16;8.40;;;3.10;;
67640;SDS011;54434;50.096;20.082;2023-10-31T03:46:52;5.90;;;2.70;;
67640;SDS011;54434;50.096;20.082;2023-10-31T03:49:29;6.40;;;2.80;;
67640;SDS011;54434;50.096;20.082;2023-10-31T03:52:07;7.50;;;2.80;;
67640;SDS011;54434;50.096;20.082;2023-10-31T03:54:43;5.90;;;2.90;;
67640;SDS011;54434;50.096;20.082;2023-10-31T03:57:20;8.70;;;2.80;;
67640;SDS011;54434;50.096;20.082;2023-10-31T03:59:56;7.30;;;3.00;;
67640;SDS011;54434;50.096;20.082;2023-10-31T04:02:34;7.00;;;3.10;;
67640;SDS011;54434;50.096;20.082;2023-10-31T04:05:11;6.40;;;2.90;;
67640;SDS011;54434;50.096;20.082;2023-10-31T04:07:48;6.70;;;2.80;;
67640;SDS011;54434;50.096;20.082;2023-10-31T04:10:25;5.30;;;2.90;;
67640;SDS011;54434;50.096;20.082;2023-10-31T04:13:02;7.30;;;3.40;;
67640;SDS011;54434;50.096;20.082;2023-10-31T04:15:38;7.80;;;2.90;;
67640;SDS011;54434;50.096;20.082;2023-10-31T04:18:15;6.00;;;2.90;;
67640;SDS011;54434;50.096;20.082;2023-10-31T04:20:52;7.30;;;3.20;;
67640;SDS011;54434;50.096;20.082;2023-10-31T04:23:29;6.30;;;2.80;;
67640;SDS011;54434;50.096;20.082;2023-10-31T04:26:06;7.20;;;3.00;;
67640;SDS011;54434;50.096;20.082;2023-10-31T04:28:43;4.80;;;3.00;;
67640;SDS011;54434;50.096;20.082;2023-10-31T04:31:19;6.10;;;2.80;;
67640;SDS011;54434;50.096;20.082;2023-10-31T04:34:11;7.30;;;2.80;;
67640;SDS011;54434;50.096;20.082;2023-10-31T04:36:48;7.90;;;3.10;;
67640;SDS011;54434;50.096;20.082;2023-10-31T04:39:25;5.90;;;2.90;;
67640;SDS011;54434;50.096;20.082;2023-10-31T04:42:02;5.60;;;2.90;;
67640;SDS011;54434;50.096;20.082;2023-10-31T04:44:39;5.60;;;2.70;;
67640;SDS011;54434;50.096;20.082;2023-10-31T04:47:15;7.80;;;3.10;;
67640;SDS011;54434;50.096;20.082;2023-10-31T04:49:52;5.70;;;2.90;;
67640;SDS011;54434;50.096;20.082;2023-10-31T04:52:29;12.50;;;7.50;;
67640;SDS011;54434;50.096;20.082;2023-10-31T04:55:07;47.00;;;23.40;;
67640;SDS011;54434;50.096;20.082;2023-10-31T04:57:44;18.50;;;9.70;;
67640;SDS011;54434;50.096;20.082;2023-10-31T05:00:23;32.00;;;18.60;;
67640;SDS011;54434;50.096;20.082;2023-10-31T05:02:59;8.70;;;4.40;;
67640;SDS011;54434;50.096;20.082;2023-10-31T05:05:37;7.50;;;3.10;;
67640;SDS011;54434;50.096;20.082;2023-10-31T05:08:13;6.40;;;2.80;;
67640;SDS011;54434;50.096;20.082;2023-10-31T05:10:50;12.30;;;3.20;;
67640;SDS011;54434;50.096;20.082;2023-10-31T05:13:27;9.50;;;2.80;;
67640;SDS011;54434;50.096;20.082;2023-10-31T05:16:04;10.30;;;3.10;;
67640;SDS011;54434;50.096;20.082;2023-10-31T05:18:41;7.70;;;3.10;;
67640;SDS011;54434;50.096;20.082;2023-10-31T05:21:21;7.10;;;2.90;;
67640;SDS011;54434;50.096;20.082;2023-10-31T05:24:00;8.70;;;2.80;;
67640;SDS011;54434;50.096;20.082;2023-10-31T05:26:37;11.30;;;2.90;;
67640;SDS011;54434;50.096;20.082;2023-10-31T05:29:16;6.40;;;2.90;;
67640;SDS011;54434;50.096;20.082;2023-10-31T05:31:52;10.20;;;3.50;;
67640;SDS011;54434;50.096;20.082;2023-10-31T05:34:29;12.80;;;3.80;;
67640;SDS011;54434;50.096;20.082;2023-10-31T05:37:06;12.30;;;4.40;;
67640;SDS011;54434;50.096;20.082;2023-10-31T05:39:42;15.00;;;4.60;;
67640;SDS011;54434;50.096;20.082;2023-10-31T05:42:19;10.50;;;3.40;;
67640;SDS011;54434;50.096;20.082;2023-10-31T05:44:57;8.20;;;3.00;;
67640;SDS011;54434;50.096;20.082;2023-10-31T05:47:33;7.00;;;3.00;;
67640;SDS011;54434;50.096;20.082;2023-10-31T05:50:11;14.80;;;3.10;;
67640;SDS011;54434;50.096;20.082;2023-10-31T05:52:48;7.70;;;2.70;;
67640;SDS011;54434;50.096;20.082;2023-10-31T05:55:24;6.10;;;2.60;;
67640;SDS011;54434;50.096;20.082;2023-10-31T05:58:01;10.50;;;3.10;;
67640;SDS011;54434;50.096;20.082;2023-10-31T06:00:38;17.50;;;2.90;;
67640;SDS011;54434;50.096;20.082;2023-10-31T06:03:15;11.00;;;3.00;;
67640;SDS011;54434;50.096;20.082;2023-10-31T06:05:52;5.50;;;2.80;;
67640;SDS011;54434;50.096;20.082;2023-10-31T06:08:28;9.70;;;3.20;;
67640;SDS011;54434;50.096;20.082;2023-10-31T06:11:06;7.10;;;2.90;;
67640;SDS011;54434;50.096;20.082;2023-10-31T06:13:46;12.00;;;3.20;;
67640;SDS011;54434;50.096;20.082;2023-10-31T06:16:22;10.50;;;3.70;;
67640;SDS011;54434;50.096;20.082;2023-10-31T06:18:59;12.20;;;2.80;;
67640;SDS011;54434;50.096;20.082;2023-10-31T06:21:35;10.40;;;2.70;;
67640;SDS011;54434;50.096;20.082;2023-10-31T06:24:12;8.20;;;2.40;;
67640;SDS011;54434;50.096;20.082;2023-10-31T06:26:49;6.30;;;2.10;;
67640;SDS011;54434;50.096;20.082;2023-10-31T06:29:25;8.50;;;2.20;;
67640;SDS011;54434;50.096;20.082;2023-10-31T06:32:22;13.70;;;2.40;;
67640;SDS011;54434;50.096;20.082;2023-10-31T06:34:58;7.00;;;2.20;;
67640;SDS011;54434;50.096;20.082;2023-10-31T06:37:35;10.30;;;2.30;;
67640;SDS011;54434;50.096;20.082;2023-10-31T06:40:13;11.50;;;2.60;;
67640;SDS011;54434;50.096;20.082;2023-10-31T06:42:49;9.60;;;2.40;;
67640;SDS011;54434;50.096;20.082;2023-10-31T06:45:26;10.30;;;2.80;;
67640;SDS011;54434;50.096;20.082;2023-10-31T06:48:03;28.80;;;3.90;;
67640;SDS011;54434;50.096;20.082;2023-10-31T06:50:43;22.20;;;3.30;;
67640;SDS011;54434;50.096;20.082;2023-10-31T06:53:19;12.00;;;2.80;;
67640;SDS011;54434;50.096;20.082;2023-10-31T06:55:56;15.30;;;2.70;;
67640;SDS011;54434;50.096;20.082;2023-10-31T06:58:32;6.20;;;2.10;;
67640;SDS011;54434;50.096;20.082;2023-10-31T07:01:09;21.60;;;3.30;;
67640;SDS011;54434;50.096;20.082;2023-10-31T07:03:48;12.20;;;2.70;;
67640;SDS011;54434;50.096;20.082;2023-10-31T07:06:25;10.30;;;2.70;;
67640;SDS011;54434;50.096;20.082;2023-10-31T07:09:01;9.90;;;2.30;;
67640;SDS011;54434;50.096;20.082;2023-10-31T07:11:39;6.10;;;2.50;;
67640;SDS011;54434;50.096;20.082;2023-10-31T07:14:15;8.80;;;2.60;;
67640;SDS011;54434;50.096;20.082;2023-10-31T07:16:52;7.90;;;2.30;;
67640;SDS011;54434;50.096;20.082;2023-10-31T07:19:28;7.50;;;2.50;;
67640;SDS011;54434;50.096;20.082;2023-10-31T07:22:05;5.80;;;2.20;;
67640;SDS011;54434;50.096;20.082;2023-10-31T07:24:41;15.20;;;2.70;;
67640;SDS011;54434;50.096;20.082;2023-10-31T07:27:18;17.30;;;3.00;;
67640;SDS011;54434;50.096;20.082;2023-10-31T07:29:54;17.80;;;2.70;;
67640;SDS011;54434;50.096;20.082;2023-10-31T07:32:31;27.80;;;3.20;;
67640;SDS011;54434;50.096;20.082;2023-10-31T07:35:09;14.40;;;2.30;;
67640;SDS011;54434;50.096;20.082;2023-10-31T07:37:46;32.50;;;3.90;;
67640;SDS011;54434;50.096;20.082;2023-10-31T07:40:22;38.10;;;4.40;;
67640;SDS011;54434;50.096;20.082;2023-10-31T07:42:59;42.10;;;4.40;;
67640;SDS011;54434;50.096;20.082;2023-10-31T07:45:37;12.80;;;2.30;;
67640;SDS011;54434;50.096;20.082;2023-10-31T07:48:13;7.60;;;2.30;;
67640;SDS011;54434;50.096;20.082;2023-10-31T07:50:50;25.50;;;3.90;;
67640;SDS011;54434;50.096;20.082;2023-10-31T08:03:04;29.20;;;4.00;;
67640;SDS011;54434;50.096;20.082;2023-10-31T08:05:40;21.90;;;3.00;;
67640;SDS011;54434;50.096;20.082;2023-10-31T08:08:17;21.80;;;3.20;;
67640;SDS011;54434;50.096;20.082;2023-10-31T08:10:54;16.60;;;3.10;;
67640;SDS011;54434;50.096;20.082;2023-10-31T08:13:32;12.20;;;2.70;;
67640;SDS011;54434;50.096;20.082;2023-10-31T08:16:10;26.60;;;3.20;;
67640;SDS011;54434;50.096;20.082;2023-10-31T08:18:51;42.50;;;4.50;;
67640;SDS011;54434;50.096;20.082;2023-10-31T08:21:27;48.60;;;4.70;;
67640;SDS011;54434;50.096;20.082;2023-10-31T08:24:09;39.70;;;5.40;;
67640;SDS011;54434;50.096;20.082;2023-10-31T08:26:47;40.80;;;4.30;;
67640;SDS011;54434;50.096;20.082;2023-10-31T08:29:24;25.10;;;3.40;;
67640;SDS011;54434;50.096;20.082;2023-10-31T08:32:01;13.00;;;2.70;;
67640;SDS011;54434;50.096;20.082;2023-10-31T08:34:38;44.60;;;13.40;;
67640;SDS011;54434;50.096;20.082;2023-10-31T08:37:15;41.10;;;5.30;;
67640;SDS011;54434;50.096;20.082;2023-10-31T08:39:51;37.70;;;4.70;;
67640;SDS011;54434;50.096;20.082;2023-10-31T08:42:28;34.50;;;3.60;;
67640;SDS011;54434;50.096;20.082;2023-10-31T08:45:05;41.50;;;4.40;;
67640;SDS011;54434;50.096;20.082;2023-10-31T08:47:43;24.00;;;3.40;;
67640;SDS011;54434;50.096;20.082;2023-10-31T08:50:19;17.20;;;2.40;;
67640;SDS011;54434;50.096;20.082;2023-10-31T08:52:56;30.00;;;4.20;;
67640;SDS011;54434;50.096;20.082;2023-10-31T08:55:35;32.20;;;4.90;;
67640;SDS011;54434;50.096;20.082;2023-10-31T08:58:11;33.00;;;5.00;;
67640;SDS011;54434;50.096;20.082;2023-10-31T09:00:48;39.20;;;4.70;;
67640;SDS011;54434;50.096;20.082;2023-10-31T09:03:25;26.80;;;3.80;;
67640;SDS011;54434;50.096;20.082;2023-10-31T09:06:02;21.40;;;3.90;;
67640;SDS011;54434;50.096;20.082;2023-10-31T09:08:40;15.70;;;2.90;;
67640;SDS011;54434;50.096;20.082;2023-10-31T09:11:16;15.60;;;3.00;;
67640;SDS011;54434;50.096;20.082;2023-10-31T09:13:55;17.10;;;2.90;;
67640;SDS011;54434;50.096;20.082;2023-10-31T09:16:33;11.00;;;2.40;;
67640;SDS011;54434;50.096;20.082;2023-10-31T09:19:11;12.30;;;2.60;;
67640;SDS011;54434;50.096;20.082;2023-10-31T09:21:48;7.30;;;3.00;;
67640;SDS011;54434;50.096;20.082;2023-10-31T09:24:25;13.60;;;2.50;;
67640;SDS011;54434;50.096;20.082;2023-10-31T09:27:01;7.70;;;2.20;;
67640;SDS011;54434;50.096;20.082;2023-10-31T09:29:38;9.30;;;3.40;;
67640;SDS011;54434;50.096;20.082;2023-10-31T09:32:16;10.30;;;2.30;;
67640;SDS011;54434;50.096;20.082;2023-10-31T09:34:53;11.70;;;2.50;;
67640;SDS011;54434;50.096;20.082;2023-10-31T09:37:29;10.10;;;2.50;;
67640;SDS011;54434;50.096;20.082;2023-10-31T09:40:09;10.10;;;2.40;;
67640;SDS011;54434;50.096;20.082;2023-10-31T09:42:47;10.50;;;2.40;;
67640;SDS011;54434;50.096;20.082;2023-10-31T09:45:23;7.00;;;2.30;;
67640;SDS011;54434;50.096;20.082;2023-10-31T09:48:02;8.20;;;2.10;;
67640;SDS011;54434;50.096;20.082;2023-10-31T09:50:39;8.90;;;2.30;;
67640;SDS011;54434;50.096;20.082;2023-10-31T09:53:18;10.30;;;2.40;;
67640;SDS011;54434;50.096;20.082;2023-10-31T09:55:55;8.30;;;2.60;;
67640;SDS011;54434;50.096;20.082;2023-10-31T09:58:32;8.20;;;2.50;;
67640;SDS011;54434;50.096;20.082;2023-10-31T10:01:09;7.00;;;2.40;;
67640;SDS011;54434;50.096;20.082;2023-10-31T10:03:46;7.10;;;2.50;;
67640;SDS011;54434;50.096;20.082;2023-10-31T10:06:24;11.70;;;2.70;;
67640;SDS011;54434;50.096;20.082;2023-10-31T10:09:01;9.10;;;2.30;;
67640;SDS011;54434;50.096;20.082;2023-10-31T10:11:40;8.60;;;2.50;;
67640;SDS011;54434;50.096;20.082;2023-10-31T10:14:17;9.00;;;2.50;;
67640;SDS011;54434;50.096;20.082;2023-10-31T10:17:02;8.80;;;2.50;;
67640;SDS011;54434;50.096;20.082;2023-10-31T10:20:06;7.60;;;2.90;;
67640;SDS011;54434;50.096;20.082;2023-10-31T10:22:45;6.20;;;2.40;;
67640;SDS011;54434;50.096;20.082;2023-10-31T10:25:23;10.60;;;2.60;;
67640;SDS011;54434;50.096;20.082;2023-10-31T10:28:07;5.00;;;2.50;;
67640;SDS011;54434;50.096;20.082;2023-10-31T10:30:46;11.40;;;2.50;;
67640;SDS011;54434;50.096;20.082;2023-10-31T10:33:23;8.70;;;2.80;;
67640;SDS011;54434;50.096;20.082;2023-10-31T10:36:00;6.60;;;2.30;;
67640;SDS011;54434;50.096;20.082;2023-10-31T10:38:39;11.30;;;2.70;;
67640;SDS011;54434;50.096;20.082;2023-10-31T10:41:21;10.50;;;2.60;;
67640;SDS011;54434;50.096;20.082;2023-10-31T10:44:07;7.70;;;2.60;;
67640;SDS011;54434;50.096;20.082;2023-10-31T10:46:50;12.10;;;2.90;;
67640;SDS011;54434;50.096;20.082;2023-10-31T10:49:34;8.30;;;2.70;;
67640;SDS011;54434;50.096;20.082;2023-10-31T10:52:29;6.80;;;2.60;;
67640;SDS011;54434;50.096;20.082;2023-10-31T10:55:13;9.20;;;2.70;;
67640;SDS011;54434;50.096;20.082;2023-10-31T10:58:03;9.10;;;2.80;;
67640;SDS011;54434;50.096;20.082;2023-10-31T11:00:43;5.60;;;2.60;;
67640;SDS011;54434;50.096;20.082;2023-10-31T11:03:23;5.80;;;2.50;;
67640;SDS011;54434;50.096;20.082;2023-10-31T11:06:02;4.70;;;2.30;;
67640;SDS011;54434;50.096;20.082;2023-10-31T11:08:41;6.10;;;2.40;;
67640;SDS011;54434;50.096;20.082;2023-10-31T11:11:18;5.50;;;2.60;;
67640;SDS011;54434;50.096;20.082;2023-10-31T11:13:56;5.50;;;2.10;;
67640;SDS011;54434;50.096;20.082;2023-10-31T11:16:41;8.20;;;2.30;;
67640;SDS011;54434;50.096;20.082;2023-10-31T11:19:24;10.00;;;2.50;;
67640;SDS011;54434;50.096;20.082;2023-10-31T11:22:04;9.00;;;2.30;;
67640;SDS011;54434;50.096;20.082;2023-10-31T11:24:44;8.80;;;2.30;;
67640;SDS011;54434;50.096;20.082;2023-10-31T11:27:22;11.70;;;3.20;;
67640;SDS011;54434;50.096;20.082;2023-10-31T11:30:00;8.20;;;2.30;;
67640;SDS011;54434;50.096;20.082;2023-10-31T11:32:38;5.70;;;2.30;;
67640;SDS011;54434;50.096;20.082;2023-10-31T11:35:22;5.00;;;2.40;;
67640;SDS011;54434;50.096;20.082;2023-10-31T11:38:06;10.40;;;2.40;;
67640;SDS011;54434;50.096;20.082;2023-10-31T11:41:02;7.00;;;2.40;;
67640;SDS011;54434;50.096;20.082;2023-10-31T11:43:58;8.50;;;2.30;;
67640;SDS011;54434;50.096;20.082;2023-10-31T11:46:37;4.10;;;2.30;;
67640;SDS011;54434;50.096;20.082;2023-10-31T11:49:14;5.30;;;2.20;;
67640;SDS011;54434;50.096;20.082;2023-10-31T11:51:51;5.30;;;2.30;;
67640;SDS011;54434;50.096;20.082;2023-10-31T11:54:28;5.70;;;2.50;;
67640;SDS011;54434;50.096;20.082;2023-10-31T11:57:06;4.10;;;2.20;;
67640;SDS011;54434;50.096;20.082;2023-10-31T11:59:42;6.00;;;2.40;;
67640;SDS011;54434;50.096;20.082;2023-10-31T12:02:19;5.00;;;2.20;;
67640;SDS011;54434;50.096;20.082;2023-10-31T12:05:09;5.40;;;2.20;;
67640;SDS011;54434;50.096;20.082;2023-10-31T12:07:48;7.00;;;2.50;;
67640;SDS011;54434;50.096;20.082;2023-10-31T12:10:29;4.90;;;2.20;;
67640;SDS011;54434;50.096;20.082;2023-10-31T12:13:14;6.60;;;2.20;;
67640;SDS011;54434;50.096;20.082;2023-10-31T12:15:55;8.40;;;2.10;;
67640;SDS011;54434;50.096;20.082;2023-10-31T12:18:35;4.10;;;2.30;;
67640;SDS011;54434;50.096;20.082;2023-10-31T12:21:13;7.60;;;2.50;;
67640;SDS011;54434;50.096;20.082;2023-10-31T12:23:49;10.50;;;2.30;;
67640;SDS011;54434;50.096;20.082;2023-10-31T12:26:27;9.10;;;3.00;;
67640;SDS011;54434;50.096;20.082;2023-10-31T12:29:13;10.50;;;3.40;;
67640;SDS011;54434;50.096;20.082;2023-10-31T12:31:52;6.40;;;2.30;;
67640;SDS011;54434;50.096;20.082;2023-10-31T12:34:31;7.50;;;2.30;;
67640;SDS011;54434;50.096;20.082;2023-10-31T12:37:08;5.10;;;2.30;;
67640;SDS011;54434;50.096;20.082;2023-10-31T12:39:45;6.30;;;2.40;;
67640;SDS011;54434;50.096;20.082;2023-10-31T12:42:23;7.30;;;2.30;;
67640;SDS011;54434;50.096;20.082;2023-10-31T12:45:05;6.70;;;2.60;;
67640;SDS011;54434;50.096;20.082;2023-10-31T12:47:42;11.20;;;2.80;;
67640;SDS011;54434;50.096;20.082;2023-10-31T12:50:19;5.00;;;2.50;;
67640;SDS011;54434;50.096;20.082;2023-10-31T12:52:56;7.40;;;2.60;;
67640;SDS011;54434;50.096;20.082;2023-10-31T12:55:42;7.30;;;2.60;;
67640;SDS011;54434;50.096;20.082;2023-10-31T12:58:24;5.20;;;2.20;;
67640;SDS011;54434;50.096;20.082;2023-10-31T13:01:01;8.30;;;2.60;;
67640;SDS011;54434;50.096;20.082;2023-10-31T13:03:53;5.70;;;2.30;;
67640;SDS011;54434;50.096;20.082;2023-10-31T13:06:29;5.30;;;2.20;;
67640;SDS011;54434;50.096;20.082;2023-10-31T13:09:06;3.70;;;2.30;;
67640;SDS011;54434;50.096;20.082;2023-10-31T13:11:47;6.90;;;2.30;;
67640;SDS011;54434;50.096;20.082;2023-10-31T13:14:24;6.90;;;2.60;;
67640;SDS011;54434;50.096;20.082;2023-10-31T13:17:01;4.70;;;2.30;;
67640;SDS011;54434;50.096;20.082;2023-10-31T13:19:38;5.50;;;2.70;;
67640;SDS011;54434;50.096;20.082;2023-10-31T13:22:17;7.60;;;2.30;;
67640;SDS011;54434;50.096;20.082;2023-10-31T13:24:54;5.80;;;2.30;;
67640;SDS011;54434;50.096;20.082;2023-10-31T13:27:30;8.70;;;2.60;;
67640;SDS011;54434;50.096;20.082;2023-10-31T13:30:11;10.00;;;3.10;;
67640;SDS011;54434;50.096;20.082;2023-10-31T13:32:51;5.90;;;2.60;;
67640;SDS011;54434;50.096;20.082;2023-10-31T13:35:27;3.80;;;2.10;;
67640;SDS011;54434;50.096;20.082;2023-10-31T13:38:04;6.30;;;2.60;;
67640;SDS011;54434;50.096;20.082;2023-10-31T13:40:40;6.90;;;2.80;;
67640;SDS011;54434;50.096;20.082;2023-10-31T13:43:17;4.70;;;2.40;;
67640;SDS011;54434;50.096;20.082;2023-10-31T13:45:53;8.80;;;2.90;;
67640;SDS011;54434;50.096;20.082;2023-10-31T13:48:30;7.10;;;2.80;;
67640;SDS011;54434;50.096;20.082;2023-10-31T13:51:07;9.80;;;2.90;;
67640;SDS011;54434;50.096;20.082;2023-10-31T13:53:44;8.40;;;3.10;;
67640;SDS011;54434;50.096;20.082;2023-10-31T13:56:20;6.60;;;2.70;;
67640;SDS011;54434;50.096;20.082;2023-10-31T13:58:57;6.60;;;3.00;;
67640;SDS011;54434;50.096;20.082;2023-10-31T14:01:35;9.40;;;2.70;;
67640;SDS011;54434;50.096;20.082;2023-10-31T14:04:13;9.20;;;2.90;;
67640;SDS011;54434;50.096;20.082;2023-10-31T14:06:50;8.70;;;3.40;;
67640;SDS011;54434;50.096;20.082;2023-10-31T14:09:28;7.80;;;3.30;;
67640;SDS011;54434;50.096;20.082;2023-10-31T14:12:06;6.60;;;2.80;;
67640;SDS011;54434;50.096;20.082;2023-10-31T14:14:43;5.10;;;2.90;;
67640;SDS011;54434;50.096;20.082;2023-10-31T14:17:21;7.30;;;3.20;;
67640;SDS011;54434;50.096;20.082;2023-10-31T14:19:57;7.00;;;3.20;;
67640;SDS011;54434;50.096;20.082;2023-10-31T14:22:34;7.30;;;3.20;;
67640;SDS011;54434;50.096;20.082;2023-10-31T14:25:12;12.00;;;3.30;;
67640;SDS011;54434;50.096;20.082;2023-10-31T14:27:48;6.70;;;3.60;;
67640;SDS011;54434;50.096;20.082;2023-10-31T14:30:25;10.00;;;3.60;;
67640;SDS011;54434;50.096;20.082;2023-10-31T14:33:01;6.50;;;3.40;;
67640;SDS011;54434;50.096;20.082;2023-10-31T14:35:38;8.50;;;3.30;;
67640;SDS011;54434;50.096;20.082;2023-10-31T14:38:14;7.00;;;3.80;;
67640;SDS011;54434;50.096;20.082;2023-10-31T14:40:51;9.00;;;3.80;;
67640;SDS011;54434;50.096;20.082;2023-10-31T14:43:27;8.90;;;3.60;;
67640;SDS011;54434;50.096;20.082;2023-10-31T14:46:05;10.20;;;3.90;;
67640;SDS011;54434;50.096;20.082;2023-10-31T14:48:41;7.00;;;4.10;;
67640;SDS011;54434;50.096;20.082;2023-10-31T14:51:17;9.20;;;4.40;;
67640;SDS011;54434;50.096;20.082;2023-10-31T14:53:54;11.50;;;4.70;;
67640;SDS011;54434;50.096;20.082;2023-10-31T14:56:31;13.10;;;6.20;;
67640;SDS011;54434;50.096;20.082;2023-10-31T14:59:09;13.70;;;7.10;;
67640;SDS011;54434;50.096;20.082;2023-10-31T15:01:45;12.80;;;7.70;;
67640;SDS011;54434;50.096;20.082;2023-10-31T15:04:22;16.30;;;7.90;;
67640;SDS011;54434;50.096;20.082;2023-10-31T15:06:59;16.60;;;6.60;;
67640;SDS011;54434;50.096;20.082;2023-10-31T15:09:35;10.00;;;5.90;;
67640;SDS011;54434;50.096;20.082;2023-10-31T15:12:12;13.60;;;5.40;;
67640;SDS011;54434;50.096;20.082;2023-10-31T15:14:48;9.20;;;4.40;;
67640;SDS011;54434;50.096;20.082;2023-10-31T15:17:25;10.20;;;4.10;;
67640;SDS011;54434;50.096;20.082;2023-10-31T15:20:01;7.60;;;3.70;;
67640;SDS011;54434;50.096;20.082;2023-10-31T15:22:40;6.50;;;3.60;;
67640;SDS011;54434;50.096;20.082;2023-10-31T15:25:16;8.10;;;3.40;;
67640;SDS011;54434;50.096;20.082;2023-10-31T15:27:53;10.40;;;3.80;;
67640;SDS011;54434;50.096;20.082;2023-10-31T15:30:30;7.00;;;3.60;;
67640;SDS011;54434;50.096;20.082;2023-10-31T15:33:06;8.00;;;3.60;;
67640;SDS011;54434;50.096;20.082;2023-10-31T15:35:43;7.90;;;3.80;;
67640;SDS011;54434;50.096;20.082;2023-10-31T15:38:22;7.20;;;3.90;;
67640;SDS011;54434;50.096;20.082;2023-10-31T15:41:00;12.60;;;4.30;;
67640;SDS011;54434;50.096;20.082;2023-10-31T15:43:50;9.00;;;4.10;;